Time;durP1;ratioP1;P1;durP2;ratioP2;P2;SDS_P1;SDS_P2;PMS_P1;PMS_P2;Temp;Humidity;BMP_temperature;BMP_pressure;BME280_temperature;BME280_humidity;BME280_pressure;Samples;Min_cycle;Max_cycle;Signal;HPM_P1;HPM_P2
2021/08/07 00:02:46;;;;;;;;;8.00;7.00;;;;;20.26;51.16;97944.31;6055449;28;97135;-58
2021/08/07 00:05:51;;;;;;;;;8.40;7.00;;;;;20.23;51.26;97940.25;6059838;28;98107;-59
2021/08/07 00:08:55;;;;;;;;;10.00;8.00;;;;;20.23;50.93;97937.53;6060563;28;97445;-58
2021/08/07 00:11:58;;;;;;;;;9.00;8.00;;;;;20.23;51.06;97944.94;6066089;28;96906;-58
2021/08/07 00:15:01;;;;;;;;;10.00;9.00;;;;;20.19;50.89;97938.44;6065727;28;97483;-58
2021/08/07 00:18:05;;;;;;;;;10.00;8.00;;;;;20.18;51.37;97945.84;6051615;28;96529;-58
2021/08/07 00:21:10;;;;;;;;;7.00;7.00;;;;;20.19;51.15;97946.66;6064858;28;97868;-58
2021/08/07 00:24:13;;;;;;;;;8.00;7.00;;;;;20.20;51.14;97948.28;6050485;28;96889;-58
2021/08/07 00:27:17;;;;;;;;;8.50;7.00;;;;;20.17;51.09;97949.72;6059705;28;97196;-59
2021/08/07 00:30:28;;;;;;;;;8.00;8.00;;;;;20.16;50.93;97950.00;6052145;28;96507;-58
2021/08/07 00:33:32;;;;;;;;;7.00;7.00;;;;;20.15;51.35;97951.13;6064648;28;97505;-58
2021/08/07 00:36:37;;;;;;;;;6.60;6.00;;;;;20.12;51.33;97952.56;6051026;28;97143;-58
2021/08/07 00:39:41;;;;;;;;;9.60;9.00;;;;;20.12;51.16;97957.22;6048601;28;97681;-58
2021/08/07 00:42:46;;;;;;;;;9.00;7.75;;;;;19.93;51.20;97942.84;6038753;28;97230;-58
2021/08/07 00:45:59;;;;;;;;;11.00;9.00;;;;;20.11;51.27;97958.34;6056654;28;96829;-59
2021/08/07 00:49:09;;;;;;;;;11.00;10.00;;;;;20.07;51.42;97960.88;6054798;28;96870;-58
2021/08/07 00:52:16;;;;;;;;;11.00;9.00;;;;;19.98;51.61;97956.44;6068621;28;96697;-59
2021/08/07 00:55:23;;;;;;;;;11.00;9.00;;;;;19.85;51.87;97955.31;6062705;28;98561;-58
2021/08/07 00:58:28;;;;;;;;;10.00;8.00;;;;;19.81;52.24;97966.03;6071218;28;97119;-58
2021/08/07 01:01:37;;;;;;;;;9.40;9.40;;;;;19.75;51.97;97959.03;6058493;28;98473;-59
2021/08/07 01:04:51;;;;;;;;;9.00;9.00;;;;;19.80;52.04;97966.34;6064312;28;96709;-58
2021/08/07 01:08:06;;;;;;;;;11.00;9.20;;;;;19.83;52.24;97966.56;6075231;28;97918;-58
2021/08/07 01:11:20;;;;;;;;;10.60;9.60;;;;;19.81;51.90;97955.09;6075851;28;96560;-60
2021/08/07 01:14:32;;;;;;;;;9.00;9.00;;;;;19.82;51.55;97966.84;6052753;28;97342;-58
2021/08/07 01:17:41;;;;;;;;;7.00;6.00;;;;;19.87;51.71;97961.28;6069461;28;97504;-58
2021/08/07 01:20:48;;;;;;;;;9.00;8.00;;;;;19.94;51.14;97969.88;6075428;28;98637;-60
2021/08/07 01:24:06;;;;;;;;;7.50;7.00;;;;;19.94;51.13;97966.38;6072521;28;97292;-59
2021/08/07 01:27:25;;;;;;;;;10.00;9.00;;;;;20.00;51.37;97967.84;6076482;28;97844;-59
2021/08/07 01:30:39;;;;;;;;;8.00;8.00;;;;;20.02;51.34;97976.59;6064033;28;97499;-59
2021/08/07 01:33:46;;;;;;;;;7.00;7.00;;;;;20.04;51.13;97977.88;6075438;28;97568;-59
2021/08/07 01:37:04;;;;;;;;;7.25;7.25;;;;;20.05;51.16;97986.91;6075952;28;96525;-60
2021/08/07 01:40:27;;;;;;;;;9.60;8.60;;;;;20.06;51.15;97986.59;6077358;28;96855;-61
2021/08/07 01:43:42;;;;;;;;;9.00;8.00;;;;;20.07;51.20;97985.50;6075684;28;96780;-60
2021/08/07 01:46:57;;;;;;;;;9.00;8.50;;;;;20.06;51.15;97977.59;6071698;28;96848;-59
2021/08/07 01:50:14;;;;;;;;;8.50;7.50;;;;;20.03;51.72;97981.75;6073052;28;97104;-60
2021/08/07 01:53:25;;;;;;;;;11.25;10.00;;;;;19.97;51.62;97980.25;6074913;28;97549;-60
2021/08/07 01:56:43;;;;;;;;;11.75;10.00;;;;;19.93;51.99;97984.69;6074063;28;96761;-60
2021/08/07 01:59:52;;;;;;;;;9.40;8.40;;;;;19.89;51.61;97980.94;6072128;28;96963;-60
2021/08/07 02:02:56;;;;;;;;;11.00;10.00;;;;;19.83;52.28;97988.44;6075622;28;97508;-59
2021/08/07 02:06:05;;;;;;;;;10.60;10.00;;;;;19.82;51.92;97991.47;6086904;28;96620;-59
2021/08/07 02:09:11;;;;;;;;;10.60;9.00;;;;;19.80;51.94;97991.78;6067153;28;98124;-60
2021/08/07 02:12:22;;;;;;;;;10.00;9.00;;;;;19.79;51.86;97987.41;6067719;28;97013;-60
2021/08/07 02:15:33;;;;;;;;;10.00;9.00;;;;;19.79;52.15;97981.94;6074481;28;97018;-59
2021/08/07 02:18:45;;;;;;;;;9.00;8.00;;;;;19.79;52.18;97981.94;6074594;28;96517;-59
2021/08/07 02:21:50;;;;;;;;;8.00;8.00;;;;;19.78;51.94;97982.25;6071829;28;97258;-59
2021/08/07 02:24:53;;;;;;;;;9.00;8.00;;;;;19.79;52.25;97981.94;6053004;28;97364;-59
2021/08/07 02:28:10;;;;;;;;;9.00;9.00;;;;;19.80;52.28;97986.31;6073896;28;98019;-60
2021/08/07 02:31:19;;;;;;;;;8.00;8.00;;;;;19.80;51.98;97990.97;6075110;28;96847;-60
2021/08/07 02:34:24;;;;;;;;;9.00;7.00;;;;;19.80;51.90;97985.50;6060031;28;96657;-59
2021/08/07 02:37:28;;;;;;;;;7.00;7.00;;;;;19.81;51.99;97987.94;6091747;28;96595;-59
2021/08/07 02:40:33;;;;;;;;;7.00;7.00;;;;;19.82;52.42;97986.81;6074721;28;97014;-60
2021/08/07 02:43:41;;;;;;;;;8.60;7.00;;;;;19.83;52.37;97991.19;6080545;28;96652;-60
2021/08/07 02:46:49;;;;;;;;;9.00;9.00;;;;;19.85;52.16;97993.59;6067325;28;96790;-60
2021/08/07 02:49:54;;;;;;;;;6.40;6.00;;;;;19.73;52.56;97966.75;6074604;28;97559;-60
2021/08/07 02:52:59;;;;;;;;;8.00;7.00;;;;;19.90;52.27;97990.75;6074668;28;97463;-61
2021/08/07 02:56:02;;;;;;;;;9.00;8.00;;;;;19.95;52.56;97995.31;6084852;28;97036;-60
2021/08/07 02:59:07;;;;;;;;;7.00;7.00;;;;;19.95;52.46;98004.34;6091229;28;97074;-60
2021/08/07 03:02:14;;;;;;;;;6.00;6.00;;;;;19.98;52.43;98001.00;6074788;28;97384;-60
2021/08/07 03:05:22;;;;;;;;;8.20;6.00;;;;;19.97;52.36;97990.38;6074318;28;96489;-60
2021/08/07 03:08:30;;;;;;;;;7.00;7.00;;;;;19.96;52.44;97999.69;6066922;28;96823;-60
2021/08/07 03:11:34;;;;;;;;;7.00;6.00;;;;;19.96;52.70;97997.75;6073722;28;96699;-60
2021/08/07 03:14:41;;;;;;;;;8.00;7.00;;;;;20.01;52.26;98005.06;6074020;28;97601;-60
2021/08/07 03:17:49;;;;;;;;;7.75;7.75;;;;;20.05;52.17;98008.78;6087159;28;96591;-59
2021/08/07 03:20:57;;;;;;;;;8.00;7.40;;;;;20.04;52.22;98007.97;6073747;28;97280;-60
2021/08/07 03:24:08;;;;;;;;;7.80;7.00;;;;;20.02;52.42;98002.03;6074246;28;97272;-60
2021/08/07 03:27:16;;;;;;;;;7.00;6.50;;;;;20.03;52.35;98008.31;6073113;28;97503;-60
2021/08/07 03:30:27;;;;;;;;;6.60;6.00;;;;;20.07;52.35;98010.13;6082837;28;97450;-59
2021/08/07 03:33:33;;;;;;;;;6.00;6.00;;;;;20.11;52.49;98004.84;6077915;28;97488;-60
2021/08/07 03:36:37;;;;;;;;;7.00;7.00;;;;;20.13;52.53;98000.72;6067318;28;97166;-59
2021/08/07 03:39:41;;;;;;;;;7.00;6.00;;;;;20.15;52.94;98008.59;6068018;28;98072;-60
2021/08/07 03:42:44;;;;;;;;;8.00;7.00;;;;;20.11;52.60;98005.66;6073194;28;96999;-60
2021/08/07 03:45:53;;;;;;;;;7.00;6.00;;;;;20.15;52.65;98016.81;6069618;28;97241;-60
2021/08/07 03:49:02;;;;;;;;;6.00;6.00;;;;;20.19;52.85;98020.53;6073337;28;96668;-61
2021/08/07 03:52:10;;;;;;;;;5.00;5.00;;;;;20.27;52.81;98011.63;6087888;28;97508;-59
2021/08/07 03:55:17;;;;;;;;;6.00;6.00;;;;;20.36;52.94;98014.50;6072716;28;96840;-60
2021/08/07 03:58:21;;;;;;;;;8.00;7.20;;;;;20.41;52.79;98009.72;6066010;28;97432;-60
2021/08/07 04:01:46;;;;;;;;;5.00;5.00;;;;;20.46;52.80;98001.41;6068812;28;97482;-60
2021/08/07 04:04:57;;;;;;;;;6.00;6.00;;;;;20.56;53.21;98005.84;6074130;28;97560;-60
2021/08/07 04:08:02;;;;;;;;;5.00;5.00;;;;;20.64;52.67;98010.56;6073343;28;96575;-60
2021/08/07 04:11:05;;;;;;;;;6.00;6.00;;;;;20.77;52.77;98017.94;6090766;28;96993;-60
2021/08/07 04:14:19;;;;;;;;;6.00;6.00;;;;;20.86;52.60;98018.03;6072730;28;96765;-60
2021/08/07 04:17:25;;;;;;;;;5.00;5.00;;;;;20.94;52.74;98015.38;6071126;28;96594;-60
2021/08/07 04:20:30;;;;;;;;;6.00;6.00;;;;;;;;6065752;28;97136;-60
2021/08/07 04:23:34;;;;;;;;;5.20;4.20;;;;;21.10;52.22;98019.38;6073372;28;96898;-60
2021/08/07 04:26:37;;;;;;;;;5.00;5.00;;;;;21.18;52.45;98017.84;6065277;28;98049;-59
2021/08/07 04:29:44;;;;;;;;;7.60;7.60;;;;;21.29;52.11;98029.38;6072790;28;98031;-60
2021/08/07 04:32:47;;;;;;;;;5.75;5.75;;;;;21.29;52.13;98027.44;6067394;28;97321;-59
2021/08/07 04:35:52;;;;;;;;;6.00;6.00;;;;;21.39;51.77;98032.66;6085806;28;97013;-59
2021/08/07 04:38:59;;;;;;;;;7.00;6.00;;;;;21.40;51.88;98034.28;6081107;28;97374;-59
2021/08/07 04:42:04;;;;;;;;;7.00;6.00;;;;;21.38;52.14;98033.78;6074413;28;97104;-60
2021/08/07 04:45:10;;;;;;;;;6.00;6.00;;;;;21.45;51.70;98036.09;6079121;28;97116;-60
2021/08/07 04:48:13;;;;;;;;;7.00;7.00;;;;;21.43;51.71;98036.41;6080106;28;97105;-60
2021/08/07 04:51:26;;;;;;;;;6.00;6.00;;;;;21.42;52.29;98042.19;6079159;28;96595;-60
2021/08/07 04:54:30;;;;;;;;;7.25;7.00;;;;;21.38;51.93;98043.94;6080106;28;97114;-60
2021/08/07 04:57:33;;;;;;;;;8.40;8.00;;;;;21.44;51.92;98046.25;6080155;28;97174;-59
2021/08/07 05:00:37;;;;;;;;;7.00;7.00;;;;;21.46;52.13;98044.00;6065705;28;99716;-60
2021/08/07 05:03:41;;;;;;;;;6.80;6.80;;;;;21.44;51.95;98054.47;6074322;28;98114;-60
2021/08/07 05:06:50;;;;;;;;;8.60;7.60;;;;;21.49;51.73;98051.59;6072232;28;96611;-60
2021/08/07 05:09:53;;;;;;;;;7.20;7.20;;;;;21.50;52.18;98055.16;6079459;28;96670;-59
2021/08/07 05:12:58;;;;;;;;;6.00;6.00;;;;;21.53;51.90;98038.88;6071667;28;97434;-59
2021/08/07 05:16:03;;;;;;;;;8.00;7.00;;;;;21.66;51.69;98061.84;6055985;28;96892;-60
2021/08/07 05:19:06;;;;;;;;;7.00;7.00;;;;;21.67;51.76;98063.47;6086972;28;96563;-59
2021/08/07 05:22:12;;;;;;;;;7.25;7.25;;;;;21.77;52.15;98065.97;6079486;28;97219;-59
2021/08/07 05:25:19;;;;;;;;;6.60;6.40;;;;;21.91;51.62;98066.69;6079830;28;96604;-60
2021/08/07 05:28:25;;;;;;;;;6.00;6.00;;;;;22.00;51.63;98069.50;6067394;28;96634;-60
2021/08/07 05:31:28;;;;;;;;;7.00;7.00;;;;;22.16;51.87;98075.38;6079337;28;97656;-60
2021/08/07 05:34:32;;;;;;;;;8.20;7.00;;;;;22.22;51.32;98082.38;6077049;28;96526;-60
2021/08/07 05:37:40;;;;;;;;;6.00;5.60;;;;;22.31;51.31;98075.78;6078566;28;96651;-60
2021/08/07 05:40:46;;;;;;;;;6.40;6.40;;;;;22.48;51.09;98080.50;6079612;28;98461;-60
2021/08/07 05:43:49;;;;;;;;;7.75;7.00;;;;;22.51;50.98;98084.56;6097977;28;96555;-60
2021/08/07 05:46:53;;;;;;;;;7.00;7.00;;;;;22.60;51.19;98074.41;6080327;28;96585;-60
2021/08/07 05:49:57;;;;;;;;;9.00;7.00;;;;;22.69;50.75;98076.03;6081211;28;97503;-60
2021/08/07 05:53:02;;;;;;;;;6.75;6.75;;;;;22.76;50.92;98078.34;6076396;28;96752;-59
2021/08/07 05:56:07;;;;;;;;;7.80;6.00;;;;;22.82;51.19;98079.84;6076124;28;97302;-60
2021/08/07 05:59:12;;;;;;;;;7.00;7.00;;;;;23.00;51.19;98086.97;6076210;28;97460;-59
2021/08/07 06:02:16;;;;;;;;;8.00;7.40;;;;;23.14;50.63;98086.81;6074641;28;98033;-59
2021/08/07 06:05:20;;;;;;;;;7.50;7.00;;;;;23.29;50.71;98084.38;6073694;28;97691;-60
2021/08/07 06:08:25;;;;;;;;;9.60;9.00;;;;;23.38;50.38;98086.31;6059966;28;96645;-60
2021/08/07 06:11:29;;;;;;;;;7.00;6.00;;;;;23.49;50.41;98084.88;6068620;28;97558;-59
2021/08/07 06:14:32;;;;;;;;;7.00;6.50;;;;;23.62;50.46;98086.66;6068071;28;97638;-60
2021/08/07 06:17:38;;;;;;;;;7.00;6.00;;;;;23.74;50.10;98086.81;6073901;28;97254;-59
2021/08/07 06:20:42;;;;;;;;;5.80;5.80;;;;;23.87;50.23;98096.00;6075400;28;96657;-60
2021/08/07 06:23:47;;;;;;;;;6.00;6.00;;;;;24.05;50.04;98095.63;6070494;28;96876;-60
2021/08/07 06:26:51;;;;;;;;;5.00;5.00;;;;;24.17;49.86;98097.72;6075198;28;97545;-60
2021/08/07 06:29:55;;;;;;;;;6.25;5.50;;;;;24.43;49.70;98089.38;6071289;28;97453;-60
2021/08/07 06:32:58;;;;;;;;;4.00;4.00;;;;;24.55;49.24;98083.94;6074479;28;98002;-60
2021/08/07 06:36:02;;;;;;;;;6.00;6.00;;;;;24.67;49.05;98083.22;6075511;28;98037;-60
2021/08/07 06:39:08;;;;;;;;;5.80;5.80;;;;;24.82;49.05;98088.97;6075075;28;98115;-60
2021/08/07 06:42:11;;;;;;;;;5.33;5.00;;;;;24.91;48.70;98087.00;6091145;28;97371;-60
2021/08/07 06:45:35;;;;;;;;;5.00;5.00;;;;;25.10;48.58;98088.50;6069017;28;97480;-60
2021/08/07 06:48:42;;;;;;;;;5.00;5.00;;;;;25.19;48.33;98075.44;6076138;28;96787;-60
2021/08/07 06:51:49;;;;;;;;;4.00;4.00;;;;;25.23;48.13;98084.66;6072166;28;97525;-60
2021/08/07 06:54:54;;;;;;;;;4.00;3.00;;;;;25.33;47.50;98096.09;6073379;28;97517;-58
2021/08/07 06:57:58;;;;;;;;;4.00;4.00;;;;;25.41;47.50;98092.44;6075424;28;97388;-58
2021/08/07 07:01:02;;;;;;;;;5.00;5.00;;;;;25.56;47.59;98102.09;6074500;28;97482;-58
2021/08/07 07:04:07;;;;;;;;;4.00;4.00;;;;;25.72;46.67;98103.06;6071197;28;97496;-58
2021/08/07 07:07:11;;;;;;;;;5.60;4.60;;;;;25.77;46.57;98104.81;6072983;28;98203;-59
2021/08/07 07:10:16;;;;;;;;;3.00;3.00;;;;;25.88;45.98;98106.81;6076440;28;97165;-58
2021/08/07 07:13:19;;;;;;;;;6.00;6.00;;;;;25.86;46.12;98111.88;6067479;28;97441;-58
2021/08/07 07:16:23;;;;;;;;;5.75;5.75;;;;;26.09;46.21;98101.25;6066366;28;97434;-58
2021/08/07 07:19:30;;;;;;;;;5.00;5.00;;;;;26.14;45.48;98102.97;6074319;28;97237;-59
2021/08/07 07:22:34;;;;;;;;;6.00;5.00;;;;;26.35;45.37;98106.47;6072902;28;98018;-58
2021/08/07 07:25:39;;;;;;;;;5.00;5.00;;;;;26.30;44.92;98104.75;6072741;28;97229;-58
2021/08/07 07:28:44;;;;;;;;;4.25;4.25;;;;;26.46;44.58;98110.41;6073759;28;97296;-58
2021/08/07 07:31:48;;;;;;;;;6.00;6.00;;;;;26.65;44.41;98112.59;6072169;28;97524;-58
2021/08/07 07:34:54;;;;;;;;;6.00;5.00;;;;;26.69;44.34;98119.84;6072411;28;96870;-58
2021/08/07 07:37:58;;;;;;;;;3.00;3.00;;;;;26.96;44.26;98123.91;6072462;28;96690;-59
2021/08/07 07:41:03;;;;;;;;;5.00;4.00;;;;;27.22;43.40;98117.97;6071888;28;96730;-58
2021/08/07 07:44:07;;;;;;;;;6.00;6.00;;;;;27.32;42.72;98116.72;6086389;28;97127;-59
2021/08/07 07:47:11;;;;;;;;;5.00;5.00;;;;;27.38;42.83;98121.63;6071923;28;97455;-58
2021/08/07 07:50:15;;;;;;;;;5.00;5.00;;;;;27.60;42.71;98123.09;6072446;28;97428;-58
2021/08/07 07:53:25;;;;;;;;;7.00;6.00;;;;;27.74;42.20;98131.81;6071447;28;97505;-58
2021/08/07 07:56:32;;;;;;;;;4.00;4.00;;;;;27.71;41.98;98121.44;6065206;28;96660;-59
2021/08/07 07:59:36;;;;;;;;;6.00;6.00;;;;;27.99;41.75;98129.75;6089187;28;96979;-60
2021/08/07 08:02:41;;;;;;;;;8.80;7.00;;;;;28.25;41.47;98126.50;6064512;28;96981;-58
2021/08/07 08:05:44;;;;;;;;;6.00;6.00;;;;;28.32;41.08;98130.28;6072075;28;97014;-59
2021/08/07 08:08:48;;;;;;;;;5.00;5.00;;;;;28.57;40.54;98130.91;6064486;28;97676;-59
2021/08/07 08:11:53;;;;;;;;;5.00;5.00;;;;;28.80;40.20;98140.22;6064343;28;97460;-59
2021/08/07 08:15:15;;;;;;;;;4.60;4.00;;;;;28.80;40.46;98142.19;6071611;28;96719;-58
2021/08/07 08:18:19;;;;;;;;;4.00;4.00;;;;;28.91;40.20;98153.56;6090792;28;97475;-59
2021/08/07 08:21:22;;;;;;;;;6.50;5.00;;;;;28.90;39.93;98138.06;6073280;28;97497;-59
2021/08/07 08:24:26;;;;;;;;;5.00;5.00;;;;;29.20;39.82;98139.97;6075044;28;97047;-59
2021/08/07 08:27:30;;;;;;;;;6.60;6.00;;;;;29.51;40.00;98143.88;6090010;28;98014;-59
2021/08/07 08:30:35;;;;;;;;;4.00;4.00;;;;;29.76;38.71;98139.63;6080760;28;97569;-59
2021/08/07 08:33:42;;;;;;;;;5.00;5.00;;;;;30.01;38.53;98140.94;6066832;28;97544;-59
2021/08/07 08:36:45;;;;;;;;;5.00;5.00;;;;;30.12;37.59;98146.72;6071980;28;97580;-58
2021/08/07 08:39:49;;;;;;;;;5.00;4.25;;;;;30.17;37.14;98138.06;6071961;28;96831;-59
2021/08/07 08:42:54;;;;;;;;;3.25;3.00;;;;;30.32;37.67;98142.72;6047624;28;99810;-59
2021/08/07 08:45:58;;;;;;;;;5.00;5.00;;;;;30.27;36.58;98142.22;6070645;28;97878;-58
2021/08/07 08:49:04;;;;;;;;;7.00;6.00;;;;;30.21;36.34;98144.50;6073430;28;96727;-58
2021/08/07 08:52:08;;;;;;;;;5.40;5.00;;;;;30.33;36.58;98147.13;6071318;28;97523;-59
2021/08/07 08:55:13;;;;;;;;;4.00;4.00;;;;;30.47;36.24;98152.16;6081661;28;96608;-59
2021/08/07 08:58:18;;;;;;;;;4.60;4.00;;;;;30.30;35.80;98147.06;6073332;28;97844;-59
2021/08/07 09:01:21;;;;;;;;;5.00;5.00;;;;;30.42;35.53;98150.47;6071678;28;96546;-59
2021/08/07 09:04:26;;;;;;;;;4.00;4.00;;;;;30.58;35.58;98144.00;6050335;28;97668;-59
2021/08/07 09:07:30;;;;;;;;;5.00;4.00;;;;;30.62;35.51;98154.03;6074095;28;96784;-60
2021/08/07 09:10:35;;;;;;;;;3.75;3.75;;;;;30.74;35.46;98142.69;6071367;28;97458;-59
2021/08/07 09:13:40;;;;;;;;;4.00;4.00;;;;;30.93;35.38;98144.59;6069759;28;97632;-59
2021/08/07 09:17:05;;;;;;;;;4.00;4.00;;;;;30.73;34.70;98151.44;6088930;28;96772;-59
2021/08/07 09:20:09;;;;;;;;;2.80;2.80;;;;;30.68;34.69;98146.16;6071778;28;97522;-58
2021/08/07 09:23:13;;;;;;;;;3.60;3.60;;;;;30.71;34.82;98148.19;6081046;28;97745;-59
2021/08/07 09:26:22;;;;;;;;;6.00;5.00;;;;;30.70;34.51;98115.97;6073488;28;96745;-59
2021/08/07 09:29:36;;;;;;;;;4.00;4.00;;;;;31.21;34.35;98158.16;6084048;28;97917;-58
2021/08/07 09:32:50;;;;;;;;;4.60;4.60;;;;;31.40;33.71;98152.47;6074663;28;97611;-59
2021/08/07 09:35:55;;;;;;;;;5.25;4.00;;;;;31.57;34.04;98149.16;6074853;28;97391;-59
2021/08/07 09:38:59;;;;;;;;;4.50;4.00;;;;;31.75;32.70;98147.41;6074274;28;97602;-59
2021/08/07 09:42:02;;;;;;;;;4.00;3.00;;;;;31.93;32.15;98161.56;6091840;28;97198;-58
2021/08/07 09:45:13;;;;;;;;;4.00;4.00;;;;;31.90;31.64;98165.13;6075707;28;97187;-58
2021/08/07 09:48:19;;;;;;;;;4.80;4.80;;;;;31.72;31.70;98159.31;6073710;28;96978;-59
2021/08/07 09:51:25;;;;;;;;;3.00;2.60;;;;;31.62;32.66;98165.53;6075868;28;97783;-59
2021/08/07 09:54:36;;;;;;;;;3.40;3.40;;;;;31.49;31.53;98166.94;6068345;28;96757;-59
2021/08/07 09:57:40;;;;;;;;;4.00;4.00;;;;;31.62;32.25;98161.97;6087270;28;97528;-59
2021/08/07 10:00:46;;;;;;;;;4.25;3.00;;;;;31.43;31.98;98168.44;6062762;28;97138;-60
2021/08/07 10:04:04;;;;;;;;;2.00;2.00;;;;;31.63;32.14;98158.78;6072976;28;97203;-58
2021/08/07 10:07:10;;;;;;;;;3.40;3.40;;;;;31.62;30.58;98157.19;6075329;28;96523;-59
2021/08/07 10:10:23;;;;;;;;;4.00;4.00;;;;;31.34;31.34;98160.34;6075314;28;97773;-59
2021/08/07 10:13:35;;;;;;;;;2.00;1.40;;;;;31.47;30.87;98168.50;6075031;28;97504;-58
2021/08/07 10:16:47;;;;;;;;;4.00;2.00;;;;;31.26;28.39;98174.56;6071428;28;96950;-59
2021/08/07 10:19:58;;;;;;;;;2.00;2.00;;;;;31.29;28.49;98168.22;6083010;28;98112;-60
2021/08/07 10:23:03;;;;;;;;;2.60;2.00;;;;;31.59;28.82;98162.72;6070074;28;97256;-59
2021/08/07 10:26:09;;;;;;;;;3.50;3.00;;;;;31.82;29.75;98158.63;6091116;28;97627;-59
2021/08/07 10:29:18;;;;;;;;;3.00;3.00;;;;;31.91;28.62;98160.34;6075202;28;97934;-59
2021/08/07 10:32:25;;;;;;;;;3.00;3.00;;;;;32.02;28.38;98162.06;6075624;28;97548;-59
2021/08/07 10:35:30;;;;;;;;;3.00;3.00;;;;;32.31;28.77;98173.56;6075913;28;96443;-58
2021/08/07 10:38:36;;;;;;;;;2.60;2.00;;;;;32.45;28.36;98166.13;6074999;28;97877;-59
2021/08/07 10:41:41;;;;;;;;;3.00;3.00;;;;;32.80;28.23;98168.47;6075547;28;97883;-58
2021/08/07 10:44:46;;;;;;;;;3.00;3.00;;;;;32.68;26.79;98177.16;6075466;28;97624;-59
2021/08/07 10:47:52;;;;;;;;;3.00;3.00;;;;;32.87;27.90;98160.19;6067208;28;97437;-58
2021/08/07 10:50:57;;;;;;;;;2.20;2.20;;;;;32.99;26.54;98176.63;6081207;28;97371;-58
2021/08/07 10:54:04;;;;;;;;;3.00;3.00;;;;;32.76;25.79;98181.63;6076865;28;97468;-59
2021/08/07 10:57:34;;;;;;;;;3.00;3.00;;;;;32.52;26.06;98179.38;6077252;28;97014;-59
2021/08/07 11:00:41;;;;;;;;;3.00;3.00;;;;;32.36;27.40;98171.22;6078891;28;96529;-59
2021/08/07 11:03:47;;;;;;;;;2.60;2.60;;;;;32.52;27.34;98168.19;6075954;28;97464;-59
2021/08/07 11:06:53;;;;;;;;;2.60;2.60;;;;;32.49;27.40;98175.38;6091817;28;97179;-60
2021/08/07 11:10:09;;;;;;;;;3.00;3.00;;;;;32.40;26.94;98163.69;6092652;28;97457;-59
2021/08/07 11:13:22;;;;;;;;;3.00;3.00;;;;;32.68;28.06;98166.00;6077007;28;97500;-59
2021/08/07 11:16:27;;;;;;;;;2.50;2.50;;;;;32.74;28.41;98164.47;6084568;28;97702;-60
2021/08/07 11:19:49;;;;;;;;;4.00;3.00;;;;;32.92;27.41;98154.25;6091485;28;97032;-59
2021/08/07 11:23:08;;;;;;;;;4.00;4.00;;;;;33.18;27.53;98155.25;6092156;28;96644;-59
2021/08/07 11:26:12;;;;;;;;;3.00;3.00;;;;;33.36;28.01;98156.97;6076588;28;96981;-59
2021/08/07 11:29:15;;;;;;;;;2.00;2.00;;;;;33.62;27.53;98161.50;6076495;28;97542;-59
2021/08/07 11:32:18;;;;;;;;;3.00;3.00;;;;;33.70;27.55;98153.97;6083236;28;97517;-60
2021/08/07 11:36:02;;;;;;;;;3.00;3.00;;;;;33.94;26.95;98159.69;6083480;28;98621;-59
2021/08/07 11:39:06;;;;;;;;;3.00;3.00;;;;;34.00;26.68;98154.50;6084652;28;97648;-59
2021/08/07 11:42:34;;;;;;;;;3.00;3.00;;;;;33.98;26.43;98154.09;6091234;28;96599;-59
2021/08/07 11:45:37;;;;;;;;;4.00;3.00;;;;;33.82;26.74;98154.41;6075840;28;97638;-58
2021/08/07 11:48:43;;;;;;;;;2.00;2.00;;;;;33.97;26.94;98152.47;6080470;28;97543;-59
2021/08/07 11:51:53;;;;;;;;;1.00;1.00;;;;;34.02;25.73;98151.28;6081971;28;97064;-59
2021/08/07 11:54:56;;;;;;;;;2.40;2.00;;;;;33.91;26.26;98157.69;6079294;28;96957;-59
2021/08/07 11:58:07;;;;;;;;;3.00;3.00;;;;;34.09;26.16;98163.31;6075022;28;96933;-59
2021/08/07 12:01:10;;;;;;;;;3.00;3.00;;;;;33.77;26.73;98151.22;6076667;28;96506;-59
2021/08/07 12:04:14;;;;;;;;;3.40;3.00;;;;;33.77;26.90;98151.22;6083686;28;97456;-58
2021/08/07 12:07:18;;;;;;;;;3.80;3.00;;;;;33.66;27.33;98151.16;6082231;28;97482;-59
2021/08/07 12:10:22;;;;;;;;;3.00;3.00;;;;;33.58;26.61;98152.28;6075277;28;96749;-59
2021/08/07 12:13:27;;;;;;;;;4.00;3.25;;;;;33.55;26.47;98144.69;6075300;28;97539;-58
2021/08/07 12:16:34;;;;;;;;;3.00;3.00;;;;;33.31;26.71;98140.56;6082183;28;96819;-58
2021/08/07 12:19:38;;;;;;;;;3.00;3.00;;;;;33.07;26.79;98138.38;6083603;28;97405;-60
2021/08/07 12:22:59;;;;;;;;;4.00;3.20;;;;;33.10;27.78;98140.41;6077362;28;97717;-58
2021/08/07 12:26:02;;;;;;;;;2.00;2.00;;;;;33.34;27.02;98142.56;6076162;28;96676;-58
2021/08/07 12:29:08;;;;;;;;;3.00;3.00;;;;;33.39;26.22;98142.22;6065448;28;100303;-59
2021/08/07 12:32:11;;;;;;;;;2.00;2.00;;;;;33.53;26.48;98135.13;6081760;28;98137;-59
2021/08/07 12:35:30;;;;;;;;;4.00;4.00;;;;;33.73;27.03;98136.41;6081494;28;97421;-58
2021/08/07 12:38:35;;;;;;;;;3.00;2.00;;;;;33.71;26.30;98127.63;6079100;28;97211;-58
2021/08/07 12:41:38;;;;;;;;;2.00;2.00;;;;;33.86;26.41;98135.69;6088387;28;97640;-58
2021/08/07 12:44:42;;;;;;;;;4.00;4.00;;;;;33.97;26.13;98134.91;6080069;28;97492;-58
2021/08/07 12:47:46;;;;;;;;;3.00;3.00;;;;;34.08;25.79;98125.34;6087964;28;96921;-58
2021/08/07 12:50:59;;;;;;;;;3.00;3.00;;;;;34.18;25.63;98130.22;6089719;28;96973;-58
2021/08/07 12:54:16;;;;;;;;;4.00;4.00;;;;;34.22;24.83;98114.22;6085718;28;96679;-59
2021/08/07 12:57:21;;;;;;;;;4.00;3.00;;;;;34.33;25.07;98111.44;6073358;28;96533;-59
2021/08/07 13:00:28;;;;;;;;;3.00;2.00;;;;;34.35;25.87;98106.25;6066464;28;98947;-59
2021/08/07 13:03:32;;;;;;;;;3.00;3.00;;;;;34.25;24.95;98113.44;6072693;28;97474;-59
2021/08/07 13:06:56;;;;;;;;;1.60;1.60;;;;;34.25;24.37;98116.25;6085746;28;97551;-59
2021/08/07 13:10:23;;;;;;;;;2.75;2.00;;;;;34.30;25.17;98118.66;6090799;28;96970;-58
2021/08/07 13:13:41;;;;;;;;;3.00;3.00;;;;;34.16;25.18;98115.00;6089541;28;96796;-58
2021/08/07 13:16:46;;;;;;;;;3.00;3.00;;;;;34.09;24.79;98114.97;6093758;28;97559;-59
2021/08/07 13:19:50;;;;;;;;;4.00;4.00;;;;;34.04;24.97;98113.38;6089461;28;98054;-59
2021/08/07 13:22:59;;;;;;;;;2.60;2.60;;;;;33.97;24.57;98106.94;6082439;28;97478;-58
2021/08/07 13:26:06;;;;;;;;;4.00;4.00;;;;;34.17;26.04;98103.38;6088525;28;96673;-59
2021/08/07 13:29:17;;;;;;;;;1.00;1.00;;;;;34.31;24.54;98105.44;6084883;28;98264;-58
2021/08/07 13:32:22;;;;;;;;;2.00;2.00;;;;;34.34;25.33;98096.25;6078486;28;97124;-58
2021/08/07 13:35:26;;;;;;;;;3.00;3.00;;;;;34.61;26.11;98102.25;6079177;28;97328;-60
2021/08/07 13:38:30;;;;;;;;;3.00;3.00;;;;;34.62;25.80;98101.88;6096054;28;96624;-59
2021/08/07 13:41:40;;;;;;;;;4.00;4.00;;;;;34.72;24.46;98098.31;6092843;28;96569;-59
2021/08/07 13:44:43;;;;;;;;;3.00;2.00;;;;;34.87;24.44;98095.50;6081028;28;97674;-60
2021/08/07 13:47:47;;;;;;;;;2.60;2.00;;;;;34.99;24.74;98095.88;6078264;28;97252;-59
2021/08/07 13:50:51;;;;;;;;;2.80;2.00;;;;;34.89;23.65;98090.28;6082737;28;96462;-59
2021/08/07 13:53:56;;;;;;;;;3.20;3.20;;;;;34.99;23.92;98086.69;6086503;28;97184;-59
2021/08/07 13:57:04;;;;;;;;;2.00;2.00;;;;;35.05;24.58;98090.66;6091123;28;97226;-60
2021/08/07 14:00:09;;;;;;;;;3.00;3.00;;;;;35.05;24.71;98087.84;6093877;28;97426;-59
2021/08/07 14:03:16;;;;;;;;;3.00;3.00;;;;;35.02;24.29;98083.88;6094446;28;98028;-60
2021/08/07 14:06:21;;;;;;;;;4.00;3.00;;;;;34.88;24.50;98083.09;6093555;28;97032;-60
2021/08/07 14:09:25;;;;;;;;;8.40;7.40;;;;;34.76;23.88;98081.50;6092575;28;97519;-60
2021/08/07 14:12:32;;;;;;;;;3.00;3.00;;;;;34.60;24.43;98072.69;6092700;28;96687;-60
2021/08/07 14:15:36;;;;;;;;;4.00;4.00;;;;;34.52;25.08;98066.28;6092676;28;98696;-59
2021/08/07 14:18:40;;;;;;;;;3.33;3.00;;;;;34.57;25.60;98079.06;6093483;28;97598;-59
2021/08/07 14:21:44;;;;;;;;;2.20;2.20;;;;;34.64;24.71;98074.28;6093840;28;96756;-59
2021/08/07 14:24:48;;;;;;;;;2.00;2.00;;;;;34.56;24.47;98066.28;6067297;28;96890;-59
2021/08/07 14:27:53;;;;;;;;;3.00;3.00;;;;;34.50;24.67;98059.50;6067425;28;97239;-59
2021/08/07 14:30:57;;;;;;;;;2.00;2.00;;;;;34.53;25.69;98062.28;6081901;28;97483;-58
2021/08/07 14:34:00;;;;;;;;;3.00;3.00;;;;;34.32;25.50;98062.28;6093203;28;97017;-58
2021/08/07 14:37:04;;;;;;;;;3.00;3.00;;;;;34.14;25.70;98062.22;6092276;28;98201;-58
2021/08/07 14:40:08;;;;;;;;;3.25;3.25;;;;;34.09;25.50;98065.41;6092456;28;97110;-58
2021/08/07 14:43:13;;;;;;;;;3.00;3.00;;;;;33.98;25.53;98049.81;6092743;28;96885;-58